Terminal Aerodrome Forecast
Issued by NWS Wakefield, VA

Home | Current Version | Previous Version | Text Only | Print | Product List | Glossary On
Versions: 1 2 3 4 5 6 7 8 9 10 11 12 13 14 15
000
FTUS41 KAKQ 180500
TAFECG
TAF
KECG 180533Z 1806/1906 02013G18KT P6SM BKN015
      TEMPO 1806/1810 BKN008
     FM181600 04013KT P6SM SCT020 BKN040
     FM190000 04010KT P6SM SCT050 BKN100=

USA.gov is the U.S. government's official web portal to all federal, state and local government web resources and services.